sensor_id;sensor_type;location;lat;lon;timestamp;P1;durP1;ratioP1;P2;durP2;ratioP2
3463;SDS011;3551;41.578;24.706;2022-10-19T10:49:33;2.60;;;1.20;;
3463;SDS011;3551;41.578;24.706;2022-10-19T10:52:03;2.10;;;1.20;;
3463;SDS011;3551;41.578;24.706;2022-10-19T10:54:33;2.67;;;1.40;;
3463;SDS011;3551;41.578;24.706;2022-10-19T10:57:04;2.30;;;1.60;;
3463;SDS011;3551;41.578;24.706;2022-10-19T10:59:49;3.87;;;1.80;;
3463;SDS011;3551;41.578;24.706;2022-10-19T11:02:25;2.60;;;1.40;;
3463;SDS011;3551;41.578;24.706;2022-10-19T11:05:02;2.23;;;1.10;;
3463;SDS011;3551;41.578;24.706;2022-10-19T11:07:36;7.83;;;1.40;;
3463;SDS011;3551;41.578;24.706;2022-10-19T11:10:12;2.30;;;1.20;;
3463;SDS011;3551;41.578;24.706;2022-10-19T11:12:49;6.97;;;1.50;;
3463;SDS011;3551;41.578;24.706;2022-10-19T11:15:22;5.37;;;2.20;;
3463;SDS011;3551;41.578;24.706;2022-10-19T11:17:55;15.93;;;6.30;;
3463;SDS011;3551;41.578;24.706;2022-10-19T11:20:29;4.20;;;1.87;;
3463;SDS011;3551;41.578;24.706;2022-10-19T11:23:00;2.70;;;1.33;;
3463;SDS011;3551;41.578;24.706;2022-10-19T11:25:39;2.77;;;1.40;;
3463;SDS011;3551;41.578;24.706;2022-10-19T11:28:18;2.80;;;1.50;;
3463;SDS011;3551;41.578;24.706;2022-10-19T11:30:56;4.17;;;2.00;;
3463;SDS011;3551;41.578;24.706;2022-10-19T11:33:36;2.80;;;1.30;;
3463;SDS011;3551;41.578;24.706;2022-10-19T11:36:17;11.50;;;1.70;;
3463;SDS011;3551;41.578;24.706;2022-10-19T11:39:02;3.17;;;1.80;;
3463;SDS011;3551;41.578;24.706;2022-10-19T11:41:43;3.40;;;1.77;;
3463;SDS011;3551;41.578;24.706;2022-10-19T11:44:27;3.83;;;1.60;;
3463;SDS011;3551;41.578;24.706;2022-10-19T11:50:00;4.63;;;1.90;;
3463;SDS011;3551;41.578;24.706;2022-10-19T11:52:50;5.97;;;3.37;;
3463;SDS011;3551;41.578;24.706;2022-10-19T11:55:43;4.10;;;1.50;;
3463;SDS011;3551;41.578;24.706;2022-10-19T11:58:28;6.40;;;2.03;;
3463;SDS011;3551;41.578;24.706;2022-10-19T12:01:08;3.67;;;1.93;;
3463;SDS011;3551;41.578;24.706;2022-10-19T12:06:38;3.93;;;1.70;;
3463;SDS011;3551;41.578;24.706;2022-10-19T12:09:17;5.47;;;1.90;;
3463;SDS011;3551;41.578;24.706;2022-10-19T12:12:01;5.73;;;1.80;;
3463;SDS011;3551;41.578;24.706;2022-10-19T12:14:48;3.00;;;1.77;;
3463;SDS011;3551;41.578;24.706;2022-10-19T12:17:19;2.73;;;1.70;;
3463;SDS011;3551;41.578;24.706;2022-10-19T12:19:52;3.63;;;1.50;;
3463;SDS011;3551;41.578;24.706;2022-10-19T12:22:22;4.03;;;1.50;;
3463;SDS011;3551;41.578;24.706;2022-10-19T12:24:53;5.40;;;2.43;;
3463;SDS011;3551;41.578;24.706;2022-10-19T12:27:24;3.13;;;1.70;;
3463;SDS011;3551;41.578;24.706;2022-10-19T12:30:01;4.67;;;2.27;;
3463;SDS011;3551;41.578;24.706;2022-10-19T12:32:32;3.63;;;1.80;;
3463;SDS011;3551;41.578;24.706;2022-10-19T12:35:06;2.13;;;1.40;;
3463;SDS011;3551;41.578;24.706;2022-10-19T12:37:46;5.40;;;1.60;;
3463;SDS011;3551;41.578;24.706;2022-10-19T12:40:24;4.60;;;1.50;;
3463;SDS011;3551;41.578;24.706;2022-10-19T12:42:58;2.17;;;1.30;;
3463;SDS011;3551;41.578;24.706;2022-10-19T12:45:33;2.43;;;1.70;;
3463;SDS011;3551;41.578;24.706;2022-10-19T12:48:19;4.57;;;1.33;;
3463;SDS011;3551;41.578;24.706;2022-10-19T12:50:58;9.00;;;1.83;;
3463;SDS011;3551;41.578;24.706;2022-10-19T12:53:29;3.30;;;1.57;;
3463;SDS011;3551;41.578;24.706;2022-10-19T12:56:02;3.13;;;1.70;;
3463;SDS011;3551;41.578;24.706;2022-10-19T12:58:37;4.63;;;1.60;;
3463;SDS011;3551;41.578;24.706;2022-10-19T13:01:12;3.10;;;1.80;;
3463;SDS011;3551;41.578;24.706;2022-10-19T13:03:43;3.20;;;1.60;;
3463;SDS011;3551;41.578;24.706;2022-10-19T13:06:12;2.73;;;1.70;;
3463;SDS011;3551;41.578;24.706;2022-10-19T13:08:45;7.03;;;2.20;;
3463;SDS011;3551;41.578;24.706;2022-10-19T13:11:15;3.63;;;1.80;;
3463;SDS011;3551;41.578;24.706;2022-10-19T13:13:46;3.90;;;2.10;;
3463;SDS011;3551;41.578;24.706;2022-10-19T13:16:32;6.63;;;2.43;;
3463;SDS011;3551;41.578;24.706;2022-10-19T13:19:21;2.40;;;1.60;;
3463;SDS011;3551;41.578;24.706;2022-10-19T13:21:50;7.50;;;2.43;;
3463;SDS011;3551;41.578;24.706;2022-10-19T13:24:33;5.50;;;2.40;;
3463;SDS011;3551;41.578;24.706;2022-10-19T13:29:58;4.40;;;2.53;;
3463;SDS011;3551;41.578;24.706;2022-10-19T13:32:32;3.07;;;1.93;;
3463;SDS011;3551;41.578;24.706;2022-10-19T13:35:20;17.43;;;6.53;;
3463;SDS011;3551;41.578;24.706;2022-10-19T13:38:10;4.60;;;2.63;;
3463;SDS011;3551;41.578;24.706;2022-10-19T13:43:39;10.23;;;2.70;;
3463;SDS011;3551;41.578;24.706;2022-10-19T13:46:19;5.20;;;2.93;;
3463;SDS011;3551;41.578;24.706;2022-10-19T13:52:08;4.63;;;2.47;;
3463;SDS011;3551;41.578;24.706;2022-10-19T13:54:59;4.57;;;2.70;;
3463;SDS011;3551;41.578;24.706;2022-10-19T13:57:46;5.50;;;2.43;;
3463;SDS011;3551;41.578;24.706;2022-10-19T14:00:30;6.57;;;3.03;;
3463;SDS011;3551;41.578;24.706;2022-10-19T14:03:17;11.93;;;3.37;;
3463;SDS011;3551;41.578;24.706;2022-10-19T14:06:01;11.13;;;3.57;;
3463;SDS011;3551;41.578;24.706;2022-10-19T14:11:36;5.30;;;3.00;;
3463;SDS011;3551;41.578;24.706;2022-10-19T14:14:06;5.30;;;2.90;;
3463;SDS011;3551;41.578;24.706;2022-10-19T14:19:29;5.40;;;2.87;;
3463;SDS011;3551;41.578;24.706;2022-10-19T14:22:16;9.60;;;2.87;;
3463;SDS011;3551;41.578;24.706;2022-10-19T14:24:47;7.10;;;3.03;;
3463;SDS011;3551;41.578;24.706;2022-10-19T14:27:20;21.17;;;4.03;;
3463;SDS011;3551;41.578;24.706;2022-10-19T14:30:55;8.03;;;3.50;;
3463;SDS011;3551;41.578;24.706;2022-10-19T14:33:40;5.40;;;3.33;;
3463;SDS011;3551;41.578;24.706;2022-10-19T14:36:15;10.73;;;2.93;;
3463;SDS011;3551;41.578;24.706;2022-10-19T14:38:45;16.83;;;3.27;;
3463;SDS011;3551;41.578;24.706;2022-10-19T14:41:17;7.80;;;3.97;;
3463;SDS011;3551;41.578;24.706;2022-10-19T14:43:46;7.63;;;3.67;;
3463;SDS011;3551;41.578;24.706;2022-10-19T14:46:13;11.40;;;3.60;;
3463;SDS011;3551;41.578;24.706;2022-10-19T14:48:42;8.90;;;4.50;;
3463;SDS011;3551;41.578;24.706;2022-10-19T14:51:17;10.20;;;4.70;;
3463;SDS011;3551;41.578;24.706;2022-10-19T14:53:55;18.30;;;4.67;;
3463;SDS011;3551;41.578;24.706;2022-10-19T14:56:27;8.93;;;3.27;;
3463;SDS011;3551;41.578;24.706;2022-10-19T14:58:59;21.07;;;8.33;;
3463;SDS011;3551;41.578;24.706;2022-10-19T15:01:31;24.23;;;9.80;;
3463;SDS011;3551;41.578;24.706;2022-10-19T15:03:59;20.00;;;10.57;;
3463;SDS011;3551;41.578;24.706;2022-10-19T15:06:28;18.80;;;11.40;;
3463;SDS011;3551;41.578;24.706;2022-10-19T15:08:57;30.33;;;11.10;;
3463;SDS011;3551;41.578;24.706;2022-10-19T15:11:28;26.97;;;13.67;;
3463;SDS011;3551;41.578;24.706;2022-10-19T15:14:00;23.10;;;12.37;;
3463;SDS011;3551;41.578;24.706;2022-10-19T15:16:32;23.20;;;12.40;;
3463;SDS011;3551;41.578;24.706;2022-10-19T15:19:13;23.43;;;13.93;;
3463;SDS011;3551;41.578;24.706;2022-10-19T15:21:43;23.93;;;12.40;;
3463;SDS011;3551;41.578;24.706;2022-10-19T15:27:42;23.80;;;15.50;;
3463;SDS011;3551;41.578;24.706;2022-10-19T15:30:21;29.33;;;14.90;;
3463;SDS011;3551;41.578;24.706;2022-10-19T15:32:52;29.40;;;15.53;;
3463;SDS011;3551;41.578;24.706;2022-10-19T15:35:24;26.20;;;16.17;;
3463;SDS011;3551;41.578;24.706;2022-10-19T15:38:00;35.80;;;17.20;;
3463;SDS011;3551;41.578;24.706;2022-10-19T15:40:30;38.20;;;17.87;;
3463;SDS011;3551;41.578;24.706;2022-10-19T15:43:00;29.10;;;16.50;;
3463;SDS011;3551;41.578;24.706;2022-10-19T15:46:28;40.90;;;22.40;;
